sensor_id;sensor_type;location;lat;lon;timestamp;temperature;humidity
8593;DHT22;4334;49.982;8.398;2023-05-10T00:10:32;13.10;99.90
8593;DHT22;4334;49.982;8.398;2023-05-10T00:12:59;13.10;99.90
8593;DHT22;4334;49.982;8.398;2023-05-10T00:20:20;15.90;99.90
8593;DHT22;4334;49.982;8.398;2023-05-10T00:27:42;13.00;99.90
8593;DHT22;4334;49.982;8.398;2023-05-10T00:44:53;13.00;99.90
8593;DHT22;4334;49.982;8.398;2023-05-10T00:47:20;13.00;99.90
8593;DHT22;4334;49.982;8.398;2023-05-10T00:49:47;13.00;99.90
8593;DHT22;4334;49.982;8.398;2023-05-10T01:02:04;12.90;99.90
8593;DHT22;4334;49.982;8.398;2023-05-10T01:11:54;12.90;99.90
8593;DHT22;4334;49.982;8.398;2023-05-10T01:16:50;12.90;99.90
8593;DHT22;4334;49.982;8.398;2023-05-10T01:19:19;12.90;99.90
8593;DHT22;4334;49.982;8.398;2023-05-10T01:21:52;12.90;99.90
8593;DHT22;4334;49.982;8.398;2023-05-10T01:24:56;12.80;99.90
8593;DHT22;4334;49.982;8.398;2023-05-10T01:27:47;12.80;99.90
8593;DHT22;4334;49.982;8.398;2023-05-10T01:33:29;12.80;99.90
8593;DHT22;4334;49.982;8.398;2023-05-10T01:36:05;12.80;99.90
8593;DHT22;4334;49.982;8.398;2023-05-10T01:38:38;12.80;99.90
8593;DHT22;4334;49.982;8.398;2023-05-10T01:41:14;12.80;99.90
8593;DHT22;4334;49.982;8.398;2023-05-10T01:43:57;12.80;99.90
8593;DHT22;4334;49.982;8.398;2023-05-10T01:46:34;12.90;99.90
8593;DHT22;4334;49.982;8.398;2023-05-10T01:49:08;12.90;99.90
8593;DHT22;4334;49.982;8.398;2023-05-10T01:51:40;12.90;99.90
8593;DHT22;4334;49.982;8.398;2023-05-10T01:54:09;12.90;99.90
8593;DHT22;4334;49.982;8.398;2023-05-10T01:56:37;12.90;99.90
8593;DHT22;4334;49.982;8.398;2023-05-10T01:59:09;12.90;99.90
8593;DHT22;4334;49.982;8.398;2023-05-10T02:01:38;12.90;99.90
8593;DHT22;4334;49.982;8.398;2023-05-10T02:04:07;12.90;99.90
8593;DHT22;4334;49.982;8.398;2023-05-10T02:06:35;12.90;99.90
8593;DHT22;4334;49.982;8.398;2023-05-10T02:09:05;12.90;99.90
8593;DHT22;4334;49.982;8.398;2023-05-10T02:11:33;12.90;99.90
8593;DHT22;4334;49.982;8.398;2023-05-10T02:14:00;12.90;99.90
8593;DHT22;4334;49.982;8.398;2023-05-10T02:16:28;12.90;99.90
8593;DHT22;4334;49.982;8.398;2023-05-10T02:18:57;12.90;99.90
8593;DHT22;4334;49.982;8.398;2023-05-10T02:21:27;12.90;99.90
8593;DHT22;4334;49.982;8.398;2023-05-10T02:23:55;12.90;99.90
8593;DHT22;4334;49.982;8.398;2023-05-10T02:26:23;12.90;99.90
8593;DHT22;4334;49.982;8.398;2023-05-10T02:28:52;12.90;99.90
8593;DHT22;4334;49.982;8.398;2023-05-10T02:31:20;12.80;99.90
8593;DHT22;4334;49.982;8.398;2023-05-10T02:33:48;12.80;99.90
8593;DHT22;4334;49.982;8.398;2023-05-10T02:36:15;12.80;99.90
8593;DHT22;4334;49.982;8.398;2023-05-10T02:38:44;12.80;99.90
8593;DHT22;4334;49.982;8.398;2023-05-10T02:41:12;12.80;99.90
8593;DHT22;4334;49.982;8.398;2023-05-10T02:43:40;12.80;99.90
8593;DHT22;4334;49.982;8.398;2023-05-10T02:46:07;12.80;99.90
8593;DHT22;4334;49.982;8.398;2023-05-10T02:51:05;12.80;99.90
8593;DHT22;4334;49.982;8.398;2023-05-10T02:53:35;12.80;99.90
8593;DHT22;4334;49.982;8.398;2023-05-10T02:56:11;12.80;99.90
8593;DHT22;4334;49.982;8.398;2023-05-10T02:58:40;12.80;99.90
8593;DHT22;4334;49.982;8.398;2023-05-10T03:01:07;12.80;99.90
8593;DHT22;4334;49.982;8.398;2023-05-10T03:06:01;12.80;99.90
8593;DHT22;4334;49.982;8.398;2023-05-10T03:11:03;12.70;99.90
8593;DHT22;4334;49.982;8.398;2023-05-10T03:13:39;12.70;99.90
8593;DHT22;4334;49.982;8.398;2023-05-10T03:16:09;12.70;99.90
8593;DHT22;4334;49.982;8.398;2023-05-10T03:18:42;12.70;99.90
8593;DHT22;4334;49.982;8.398;2023-05-10T03:21:11;12.70;99.90
8593;DHT22;4334;49.982;8.398;2023-05-10T03:23:43;12.70;99.90
8593;DHT22;4334;49.982;8.398;2023-05-10T03:26:12;12.70;99.90
8593;DHT22;4334;49.982;8.398;2023-05-10T03:28:41;12.60;99.90
8593;DHT22;4334;49.982;8.398;2023-05-10T03:31:09;12.60;99.90
8593;DHT22;4334;49.982;8.398;2023-05-10T03:40:57;12.60;99.90
8593;DHT22;4334;49.982;8.398;2023-05-10T03:45:52;12.60;99.90
8593;DHT22;4334;49.982;8.398;2023-05-10T03:48:19;12.70;99.90
8593;DHT22;4334;49.982;8.398;2023-05-10T03:58:11;12.70;99.90
8593;DHT22;4334;49.982;8.398;2023-05-10T04:00:37;12.80;99.90
8593;DHT22;4334;49.982;8.398;2023-05-10T04:03:10;12.70;99.90
8593;DHT22;4334;49.982;8.398;2023-05-10T04:08:05;12.80;99.90
8593;DHT22;4334;49.982;8.398;2023-05-10T04:10:32;12.80;99.90
8593;DHT22;4334;49.982;8.398;2023-05-10T04:20:21;12.90;99.90
8593;DHT22;4334;49.982;8.398;2023-05-10T04:30:10;12.80;99.90
8593;DHT22;4334;49.982;8.398;2023-05-10T04:35:04;12.90;99.90
8593;DHT22;4334;49.982;8.398;2023-05-10T04:54:45;12.90;99.90
8593;DHT22;4334;49.982;8.398;2023-05-10T05:02:06;12.90;99.90
8593;DHT22;4334;49.982;8.398;2023-05-10T05:04:32;12.90;99.90
8593;DHT22;4334;49.982;8.398;2023-05-10T05:06:59;12.90;99.90
8593;DHT22;4334;49.982;8.398;2023-05-10T05:11:54;12.90;99.90
8593;DHT22;4334;49.982;8.398;2023-05-10T05:14:21;13.00;99.90
8593;DHT22;4334;49.982;8.398;2023-05-10T05:19:14;13.10;99.90
8593;DHT22;4334;49.982;8.398;2023-05-10T05:21:41;13.10;99.90
8593;DHT22;4334;49.982;8.398;2023-05-10T05:24:08;13.20;99.90
8593;DHT22;4334;49.982;8.398;2023-05-10T05:26:36;13.20;99.90
8593;DHT22;4334;49.982;8.398;2023-05-10T05:29:04;13.20;99.90
8593;DHT22;4334;49.982;8.398;2023-05-10T05:31:31;13.30;99.90
8593;DHT22;4334;49.982;8.398;2023-05-10T05:36:25;13.40;99.90
8593;DHT22;4334;49.982;8.398;2023-05-10T05:38:51;13.40;99.90
8593;DHT22;4334;49.982;8.398;2023-05-10T05:41:18;13.40;99.90
8593;DHT22;4334;49.982;8.398;2023-05-10T05:43:45;13.40;99.90
8593;DHT22;4334;49.982;8.398;2023-05-10T05:46:13;13.40;99.90
8593;DHT22;4334;49.982;8.398;2023-05-10T05:48:40;13.40;99.90
8593;DHT22;4334;49.982;8.398;2023-05-10T05:51:06;13.60;99.90
8593;DHT22;4334;49.982;8.398;2023-05-10T05:53:33;13.90;99.90
8593;DHT22;4334;49.982;8.398;2023-05-10T05:56:00;14.00;99.90
8593;DHT22;4334;49.982;8.398;2023-05-10T05:58:26;14.00;99.90
8593;DHT22;4334;49.982;8.398;2023-05-10T06:00:53;17.30;99.90
8593;DHT22;4334;49.982;8.398;2023-05-10T06:03:21;14.50;99.90
8593;DHT22;4334;49.982;8.398;2023-05-10T06:05:48;14.80;99.90
8593;DHT22;4334;49.982;8.398;2023-05-10T06:08:15;14.90;99.90
8593;DHT22;4334;49.982;8.398;2023-05-10T06:10:41;14.80;99.90
8593;DHT22;4334;49.982;8.398;2023-05-10T06:13:08;14.60;99.90
8593;DHT22;4334;49.982;8.398;2023-05-10T06:15:35;14.70;99.90
8593;DHT22;4334;49.982;8.398;2023-05-10T06:18:02;14.80;99.90
8593;DHT22;4334;49.982;8.398;2023-05-10T06:20:30;14.90;99.90
8593;DHT22;4334;49.982;8.398;2023-05-10T06:22:58;14.90;99.90
8593;DHT22;4334;49.982;8.398;2023-05-10T06:25:24;14.90;99.90
8593;DHT22;4334;49.982;8.398;2023-05-10T06:27:51;14.80;99.90
8593;DHT22;4334;49.982;8.398;2023-05-10T06:30:23;14.90;99.90
8593;DHT22;4334;49.982;8.398;2023-05-10T06:32:52;15.00;99.90
8593;DHT22;4334;49.982;8.398;2023-05-10T06:35:20;14.90;99.90
8593;DHT22;4334;49.982;8.398;2023-05-10T06:37:48;15.00;99.90
8593;DHT22;4334;49.982;8.398;2023-05-10T06:40:15;14.90;99.90
8593;DHT22;4334;49.982;8.398;2023-05-10T06:42:42;15.00;99.90
8593;DHT22;4334;49.982;8.398;2023-05-10T06:45:10;15.10;99.90
8593;DHT22;4334;49.982;8.398;2023-05-10T06:47:37;15.00;99.90
8593;DHT22;4334;49.982;8.398;2023-05-10T06:50:04;15.00;99.90
8593;DHT22;4334;49.982;8.398;2023-05-10T06:52:31;15.00;99.90
8593;DHT22;4334;49.982;8.398;2023-05-10T06:54:59;15.00;99.90
8593;DHT22;4334;49.982;8.398;2023-05-10T06:57:27;15.10;99.90
8593;DHT22;4334;49.982;8.398;2023-05-10T06:59:54;15.20;99.90
8593;DHT22;4334;49.982;8.398;2023-05-10T07:02:21;16.90;99.90
8593;DHT22;4334;49.982;8.398;2023-05-10T07:04:48;15.60;99.90
8593;DHT22;4334;49.982;8.398;2023-05-10T07:07:15;15.70;99.90
8593;DHT22;4334;49.982;8.398;2023-05-10T07:09:45;15.80;99.90
8593;DHT22;4334;49.982;8.398;2023-05-10T07:12:14;15.90;99.90
8593;DHT22;4334;49.982;8.398;2023-05-10T07:14:41;15.90;99.90
8593;DHT22;4334;49.982;8.398;2023-05-10T07:19:35;16.50;99.90
8593;DHT22;4334;49.982;8.398;2023-05-10T07:22:02;16.60;99.90
8593;DHT22;4334;49.982;8.398;2023-05-10T07:24:29;16.50;99.90
8593;DHT22;4334;49.982;8.398;2023-05-10T07:26:56;16.70;99.90
8593;DHT22;4334;49.982;8.398;2023-05-10T07:29:24;16.70;99.90
8593;DHT22;4334;49.982;8.398;2023-05-10T07:31:51;16.60;99.90
8593;DHT22;4334;49.982;8.398;2023-05-10T07:34:18;16.50;99.90
8593;DHT22;4334;49.982;8.398;2023-05-10T07:36:45;16.20;99.90
8593;DHT22;4334;49.982;8.398;2023-05-10T07:39:11;16.20;99.90
8593;DHT22;4334;49.982;8.398;2023-05-10T07:41:38;17.30;99.90
8593;DHT22;4334;49.982;8.398;2023-05-10T07:44:05;15.90;99.90
8593;DHT22;4334;49.982;8.398;2023-05-10T07:46:33;16.30;99.90
8593;DHT22;4334;49.982;8.398;2023-05-10T07:49:00;16.40;99.90
8593;DHT22;4334;49.982;8.398;2023-05-10T07:51:27;16.50;99.90
8593;DHT22;4334;49.982;8.398;2023-05-10T07:53:54;16.50;99.90
8593;DHT22;4334;49.982;8.398;2023-05-10T07:56:22;16.30;99.90
8593;DHT22;4334;49.982;8.398;2023-05-10T07:58:50;16.20;99.90
8593;DHT22;4334;49.982;8.398;2023-05-10T08:01:17;16.40;99.90
8593;DHT22;4334;49.982;8.398;2023-05-10T08:03:45;16.60;99.90
8593;DHT22;4334;49.982;8.398;2023-05-10T08:06:12;16.90;99.90
8593;DHT22;4334;49.982;8.398;2023-05-10T08:08:39;17.20;99.90
8593;DHT22;4334;49.982;8.398;2023-05-10T08:11:06;17.20;99.90
8593;DHT22;4334;49.982;8.398;2023-05-10T08:13:33;17.20;99.90
8593;DHT22;4334;49.982;8.398;2023-05-10T08:16:00;17.40;99.90
8593;DHT22;4334;49.982;8.398;2023-05-10T08:18:27;16.90;99.90
8593;DHT22;4334;49.982;8.398;2023-05-10T08:20:55;16.70;99.90
8593;DHT22;4334;49.982;8.398;2023-05-10T08:23:21;16.70;99.90
8593;DHT22;4334;49.982;8.398;2023-05-10T08:25:48;19.60;99.90
8593;DHT22;4334;49.982;8.398;2023-05-10T08:28:15;16.40;99.90
8593;DHT22;4334;49.982;8.398;2023-05-10T08:30:41;16.20;99.90
8593;DHT22;4334;49.982;8.398;2023-05-10T08:33:08;16.10;99.90
8593;DHT22;4334;49.982;8.398;2023-05-10T08:35:35;16.20;99.90
8593;DHT22;4334;49.982;8.398;2023-05-10T08:38:03;16.10;99.90
8593;DHT22;4334;49.982;8.398;2023-05-10T08:40:30;16.20;99.90
8593;DHT22;4334;49.982;8.398;2023-05-10T08:43:04;16.40;99.90
8593;DHT22;4334;49.982;8.398;2023-05-10T08:45:33;16.90;99.90
8593;DHT22;4334;49.982;8.398;2023-05-10T08:48:01;16.90;99.90
8593;DHT22;4334;49.982;8.398;2023-05-10T08:50:29;17.10;99.90
8593;DHT22;4334;49.982;8.398;2023-05-10T08:52:59;17.10;99.90
8593;DHT22;4334;49.982;8.398;2023-05-10T08:55:27;17.00;99.90
8593;DHT22;4334;49.982;8.398;2023-05-10T08:57:54;17.40;99.90
8593;DHT22;4334;49.982;8.398;2023-05-10T09:00:22;17.20;99.90
8593;DHT22;4334;49.982;8.398;2023-05-10T09:02:49;17.10;99.90
8593;DHT22;4334;49.982;8.398;2023-05-10T09:05:16;17.60;99.90
8593;DHT22;4334;49.982;8.398;2023-05-10T09:07:43;17.70;99.90
8593;DHT22;4334;49.982;8.398;2023-05-10T09:10:10;21.60;99.90
8593;DHT22;4334;49.982;8.398;2023-05-10T09:12:39;16.90;99.90
8593;DHT22;4334;49.982;8.398;2023-05-10T09:15:07;16.00;99.90
8593;DHT22;4334;49.982;8.398;2023-05-10T09:17:36;15.40;99.90
8593;DHT22;4334;49.982;8.398;2023-05-10T09:20:05;14.90;99.90
8593;DHT22;4334;49.982;8.398;2023-05-10T09:22:32;14.40;99.90
8593;DHT22;4334;49.982;8.398;2023-05-10T09:25:06;14.30;99.90
8593;DHT22;4334;49.982;8.398;2023-05-10T09:27:33;14.30;99.90
8593;DHT22;4334;49.982;8.398;2023-05-10T09:30:01;14.30;99.90
8593;DHT22;4334;49.982;8.398;2023-05-10T09:32:38;14.40;99.90
8593;DHT22;4334;49.982;8.398;2023-05-10T09:35:09;14.40;99.90
8593;DHT22;4334;49.982;8.398;2023-05-10T09:37:36;14.40;99.90
8593;DHT22;4334;49.982;8.398;2023-05-10T09:40:07;14.40;99.90
8593;DHT22;4334;49.982;8.398;2023-05-10T09:45:04;14.50;99.90
8593;DHT22;4334;49.982;8.398;2023-05-10T09:47:32;14.70;99.90
8593;DHT22;4334;49.982;8.398;2023-05-10T09:50:00;14.70;99.90
8593;DHT22;4334;49.982;8.398;2023-05-10T09:52:30;14.80;99.90
8593;DHT22;4334;49.982;8.398;2023-05-10T09:54:57;14.90;99.90
8593;DHT22;4334;49.982;8.398;2023-05-10T09:57:24;15.00;99.90
8593;DHT22;4334;49.982;8.398;2023-05-10T09:59:52;15.00;99.90
8593;DHT22;4334;49.982;8.398;2023-05-10T10:02:21;15.10;99.90
8593;DHT22;4334;49.982;8.398;2023-05-10T10:04:55;15.00;99.90
8593;DHT22;4334;49.982;8.398;2023-05-10T10:07:23;15.00;99.90
8593;DHT22;4334;49.982;8.398;2023-05-10T10:09:51;15.40;99.90
8593;DHT22;4334;49.982;8.398;2023-05-10T10:12:18;15.90;99.90
8593;DHT22;4334;49.982;8.398;2023-05-10T10:14:46;16.60;99.90
8593;DHT22;4334;49.982;8.398;2023-05-10T10:17:13;17.40;99.90
8593;DHT22;4334;49.982;8.398;2023-05-10T10:19:42;18.60;99.90
8593;DHT22;4334;49.982;8.398;2023-05-10T10:22:09;18.80;99.90
8593;DHT22;4334;49.982;8.398;2023-05-10T10:24:38;18.80;99.90
8593;DHT22;4334;49.982;8.398;2023-05-10T10:27:15;18.90;99.90
8593;DHT22;4334;49.982;8.398;2023-05-10T10:29:52;18.60;99.90
8593;DHT22;4334;49.982;8.398;2023-05-10T10:32:25;18.30;99.90
8593;DHT22;4334;49.982;8.398;2023-05-10T10:34:55;17.90;99.90
8593;DHT22;4334;49.982;8.398;2023-05-10T10:37:22;17.70;99.90
8593;DHT22;4334;49.982;8.398;2023-05-10T10:39:49;17.80;99.90
8593;DHT22;4334;49.982;8.398;2023-05-10T10:42:46;18.30;99.90
8593;DHT22;4334;49.982;8.398;2023-05-10T10:45:15;19.10;99.90
8593;DHT22;4334;49.982;8.398;2023-05-10T10:47:42;19.80;99.90
8593;DHT22;4334;49.982;8.398;2023-05-10T10:50:10;20.20;99.90
8593;DHT22;4334;49.982;8.398;2023-05-10T10:52:38;20.10;99.90
8593;DHT22;4334;49.982;8.398;2023-05-10T10:55:07;20.60;99.90
8593;DHT22;4334;49.982;8.398;2023-05-10T10:57:43;19.90;99.90
8593;DHT22;4334;49.982;8.398;2023-05-10T11:00:25;19.50;99.90
8593;DHT22;4334;49.982;8.398;2023-05-10T11:02:55;19.40;99.90
8593;DHT22;4334;49.982;8.398;2023-05-10T11:05:40;18.90;99.90
8593;DHT22;4334;49.982;8.398;2023-05-10T11:08:15;18.20;99.90
8593;DHT22;4334;49.982;8.398;2023-05-10T11:11:01;18.20;99.90
8593;DHT22;4334;49.982;8.398;2023-05-10T11:13:30;18.70;99.90
8593;DHT22;4334;49.982;8.398;2023-05-10T11:15:58;18.30;99.90
8593;DHT22;4334;49.982;8.398;2023-05-10T11:18:26;18.70;99.90
8593;DHT22;4334;49.982;8.398;2023-05-10T11:20:57;20.60;99.90
8593;DHT22;4334;49.982;8.398;2023-05-10T11:23:29;19.00;99.90
8593;DHT22;4334;49.982;8.398;2023-05-10T11:25:56;19.10;99.90
8593;DHT22;4334;49.982;8.398;2023-05-10T11:28:23;19.00;99.90
8593;DHT22;4334;49.982;8.398;2023-05-10T11:30:50;18.90;99.90
8593;DHT22;4334;49.982;8.398;2023-05-10T11:33:18;19.00;99.90
8593;DHT22;4334;49.982;8.398;2023-05-10T11:35:46;19.50;99.90
8593;DHT22;4334;49.982;8.398;2023-05-10T11:38:14;19.50;99.90
8593;DHT22;4334;49.982;8.398;2023-05-10T11:40:41;23.20;99.90
8593;DHT22;4334;49.982;8.398;2023-05-10T11:43:09;20.10;99.90
8593;DHT22;4334;49.982;8.398;2023-05-10T11:45:36;20.30;99.90
8593;DHT22;4334;49.982;8.398;2023-05-10T11:48:03;21.20;99.90
8593;DHT22;4334;49.982;8.398;2023-05-10T11:50:30;20.80;99.90
8593;DHT22;4334;49.982;8.398;2023-05-10T11:52:58;21.00;99.90
8593;DHT22;4334;49.982;8.398;2023-05-10T11:55:26;21.00;99.90
8593;DHT22;4334;49.982;8.398;2023-05-10T11:57:59;21.50;99.90
8593;DHT22;4334;49.982;8.398;2023-05-10T12:00:26;21.30;99.90
8593;DHT22;4334;49.982;8.398;2023-05-10T12:02:53;22.50;99.90
8593;DHT22;4334;49.982;8.398;2023-05-10T12:05:20;21.40;99.90
8593;DHT22;4334;49.982;8.398;2023-05-10T12:07:46;21.70;99.90
8593;DHT22;4334;49.982;8.398;2023-05-10T12:10:13;21.10;99.90
8593;DHT22;4334;49.982;8.398;2023-05-10T12:12:44;21.20;99.90
8593;DHT22;4334;49.982;8.398;2023-05-10T12:15:11;21.00;99.90
8593;DHT22;4334;49.982;8.398;2023-05-10T12:17:39;20.40;99.90
8593;DHT22;4334;49.982;8.398;2023-05-10T12:20:17;20.30;99.90
8593;DHT22;4334;49.982;8.398;2023-05-10T12:25:11;20.00;99.90
8593;DHT22;4334;49.982;8.398;2023-05-10T12:27:38;20.10;99.90
8593;DHT22;4334;49.982;8.398;2023-05-10T12:30:08;20.20;99.90
8593;DHT22;4334;49.982;8.398;2023-05-10T12:32:38;20.20;99.90
8593;DHT22;4334;49.982;8.398;2023-05-10T12:35:05;23.40;99.90
8593;DHT22;4334;49.982;8.398;2023-05-10T12:37:32;19.80;99.90
8593;DHT22;4334;49.982;8.398;2023-05-10T12:40:01;19.90;99.90
8593;DHT22;4334;49.982;8.398;2023-05-10T12:42:30;19.40;99.90
8593;DHT22;4334;49.982;8.398;2023-05-10T12:44:57;19.20;99.90
8593;DHT22;4334;49.982;8.398;2023-05-10T12:47:26;19.30;99.90
8593;DHT22;4334;49.982;8.398;2023-05-10T12:49:52;19.30;99.90
8593;DHT22;4334;49.982;8.398;2023-05-10T12:52:19;19.80;99.90
8593;DHT22;4334;49.982;8.398;2023-05-10T12:54:46;23.70;99.90
8593;DHT22;4334;49.982;8.398;2023-05-10T12:57:13;19.90;99.90
8593;DHT22;4334;49.982;8.398;2023-05-10T12:59:39;19.90;99.90
8593;DHT22;4334;49.982;8.398;2023-05-10T13:02:08;19.60;99.90
8593;DHT22;4334;49.982;8.398;2023-05-10T13:04:36;22.80;99.90
8593;DHT22;4334;49.982;8.398;2023-05-10T13:07:05;19.40;99.90
8593;DHT22;4334;49.982;8.398;2023-05-10T13:09:32;19.40;99.90
8593;DHT22;4334;49.982;8.398;2023-05-10T13:11:58;19.10;99.90
8593;DHT22;4334;49.982;8.398;2023-05-10T13:14:26;19.10;99.90
8593;DHT22;4334;49.982;8.398;2023-05-10T13:16:53;19.00;99.90
8593;DHT22;4334;49.982;8.398;2023-05-10T13:19:20;19.80;99.90
8593;DHT22;4334;49.982;8.398;2023-05-10T13:21:48;20.40;99.90
8593;DHT22;4334;49.982;8.398;2023-05-10T13:24:15;20.40;99.90
8593;DHT22;4334;49.982;8.398;2023-05-10T13:26:42;20.10;99.90
8593;DHT22;4334;49.982;8.398;2023-05-10T13:29:09;22.00;99.90
8593;DHT22;4334;49.982;8.398;2023-05-10T13:31:36;20.50;99.90
8593;DHT22;4334;49.982;8.398;2023-05-10T13:34:04;20.50;99.90
8593;DHT22;4334;49.982;8.398;2023-05-10T13:36:31;20.30;99.90
8593;DHT22;4334;49.982;8.398;2023-05-10T13:38:59;20.30;99.90
8593;DHT22;4334;49.982;8.398;2023-05-10T13:41:28;20.40;99.90
8593;DHT22;4334;49.982;8.398;2023-05-10T13:43:55;20.60;99.90
8593;DHT22;4334;49.982;8.398;2023-05-10T13:46:22;21.70;99.90
8593;DHT22;4334;49.982;8.398;2023-05-10T13:48:48;21.60;99.90
8593;DHT22;4334;49.982;8.398;2023-05-10T13:51:15;21.80;99.90
8593;DHT22;4334;49.982;8.398;2023-05-10T13:53:42;21.40;99.90
8593;DHT22;4334;49.982;8.398;2023-05-10T13:56:10;21.10;99.90
8593;DHT22;4334;49.982;8.398;2023-05-10T13:58:36;21.20;99.90
8593;DHT22;4334;49.982;8.398;2023-05-10T14:01:03;21.20;99.90
8593;DHT22;4334;49.982;8.398;2023-05-10T14:03:30;20.90;99.90
8593;DHT22;4334;49.982;8.398;2023-05-10T14:05:57;20.90;99.90
8593;DHT22;4334;49.982;8.398;2023-05-10T14:08:24;21.00;99.90
8593;DHT22;4334;49.982;8.398;2023-05-10T14:10:52;20.90;99.90
8593;DHT22;4334;49.982;8.398;2023-05-10T14:13:20;20.70;99.90
8593;DHT22;4334;49.982;8.398;2023-05-10T14:15:47;21.30;99.90
8593;DHT22;4334;49.982;8.398;2023-05-10T14:18:14;21.40;99.90
8593;DHT22;4334;49.982;8.398;2023-05-10T14:20:40;21.40;99.90
8593;DHT22;4334;49.982;8.398;2023-05-10T14:23:07;21.20;99.90
8593;DHT22;4334;49.982;8.398;2023-05-10T14:25:34;21.50;99.90
8593;DHT22;4334;49.982;8.398;2023-05-10T14:28:01;21.60;99.90
8593;DHT22;4334;49.982;8.398;2023-05-10T14:30:29;21.50;99.90
8593;DHT22;4334;49.982;8.398;2023-05-10T14:32:56;21.60;99.90
8593;DHT22;4334;49.982;8.398;2023-05-10T14:35:23;21.60;99.90
8593;DHT22;4334;49.982;8.398;2023-05-10T14:37:50;21.50;99.90
8593;DHT22;4334;49.982;8.398;2023-05-10T14:40:17;21.50;99.90
8593;DHT22;4334;49.982;8.398;2023-05-10T14:42:44;21.30;99.90
8593;DHT22;4334;49.982;8.398;2023-05-10T14:45:10;21.00;99.90
8593;DHT22;4334;49.982;8.398;2023-05-10T14:47:39;20.60;99.90
8593;DHT22;4334;49.982;8.398;2023-05-10T14:50:06;20.60;99.90
8593;DHT22;4334;49.982;8.398;2023-05-10T14:52:33;20.50;99.90
8593;DHT22;4334;49.982;8.398;2023-05-10T14:55:01;20.20;99.90
8593;DHT22;4334;49.982;8.398;2023-05-10T14:57:28;19.90;99.90
8593;DHT22;4334;49.982;8.398;2023-05-10T14:59:55;20.10;99.90
8593;DHT22;4334;49.982;8.398;2023-05-10T15:02:22;20.30;99.90
8593;DHT22;4334;49.982;8.398;2023-05-10T15:04:50;20.30;99.90
8593;DHT22;4334;49.982;8.398;2023-05-10T15:07:17;20.30;99.90
8593;DHT22;4334;49.982;8.398;2023-05-10T15:09:43;20.30;99.90
8593;DHT22;4334;49.982;8.398;2023-05-10T15:12:10;20.10;99.90
8593;DHT22;4334;49.982;8.398;2023-05-10T15:14:37;20.00;99.90
8593;DHT22;4334;49.982;8.398;2023-05-10T15:17:06;20.30;99.90
8593;DHT22;4334;49.982;8.398;2023-05-10T15:19:36;20.60;99.90
8593;DHT22;4334;49.982;8.398;2023-05-10T15:22:04;20.50;99.90
8593;DHT22;4334;49.982;8.398;2023-05-10T15:24:31;20.50;99.90
8593;DHT22;4334;49.982;8.398;2023-05-10T15:26:58;20.40;99.90
8593;DHT22;4334;49.982;8.398;2023-05-10T15:29:25;20.30;99.90
8593;DHT22;4334;49.982;8.398;2023-05-10T15:31:52;23.10;99.90
8593;DHT22;4334;49.982;8.398;2023-05-10T15:34:19;19.90;99.90
8593;DHT22;4334;49.982;8.398;2023-05-10T15:36:45;20.00;99.90
8593;DHT22;4334;49.982;8.398;2023-05-10T15:39:13;20.00;99.90
8593;DHT22;4334;49.982;8.398;2023-05-10T15:41:40;19.90;99.90
8593;DHT22;4334;49.982;8.398;2023-05-10T15:44:07;19.80;99.90
8593;DHT22;4334;49.982;8.398;2023-05-10T15:46:34;19.80;99.90
8593;DHT22;4334;49.982;8.398;2023-05-10T15:49:00;23.70;99.90
8593;DHT22;4334;49.982;8.398;2023-05-10T15:51:27;20.30;99.90
8593;DHT22;4334;49.982;8.398;2023-05-10T15:53:54;20.80;99.90
8593;DHT22;4334;49.982;8.398;2023-05-10T15:56:22;21.10;99.90
8593;DHT22;4334;49.982;8.398;2023-05-10T15:58:49;24.30;99.90
8593;DHT22;4334;49.982;8.398;2023-05-10T16:01:16;25.60;99.90
8593;DHT22;4334;49.982;8.398;2023-05-10T16:03:42;21.50;99.90
8593;DHT22;4334;49.982;8.398;2023-05-10T16:06:09;21.20;99.90
8593;DHT22;4334;49.982;8.398;2023-05-10T16:08:36;20.70;99.90
8593;DHT22;4334;49.982;8.398;2023-05-10T16:11:02;21.20;99.90
8593;DHT22;4334;49.982;8.398;2023-05-10T16:13:31;25.80;99.90
8593;DHT22;4334;49.982;8.398;2023-05-10T16:15:57;21.20;99.90
8593;DHT22;4334;49.982;8.398;2023-05-10T16:18:24;21.50;99.90
8593;DHT22;4334;49.982;8.398;2023-05-10T16:20:51;21.50;99.90
8593;DHT22;4334;49.982;8.398;2023-05-10T16:23:18;21.40;99.90
8593;DHT22;4334;49.982;8.398;2023-05-10T16:25:45;21.70;99.90
8593;DHT22;4334;49.982;8.398;2023-05-10T16:28:12;23.70;99.90
8593;DHT22;4334;49.982;8.398;2023-05-10T16:30:40;22.20;99.90
8593;DHT22;4334;49.982;8.398;2023-05-10T16:33:07;21.90;99.90
8593;DHT22;4334;49.982;8.398;2023-05-10T16:35:33;21.50;99.90
8593;DHT22;4334;49.982;8.398;2023-05-10T16:38:00;21.60;99.90
8593;DHT22;4334;49.982;8.398;2023-05-10T16:40:27;22.30;99.90
8593;DHT22;4334;49.982;8.398;2023-05-10T16:42:54;25.40;99.90
8593;DHT22;4334;49.982;8.398;2023-05-10T16:45:20;22.90;99.90
8593;DHT22;4334;49.982;8.398;2023-05-10T16:47:48;22.40;99.90
8593;DHT22;4334;49.982;8.398;2023-05-10T16:50:16;21.80;99.90
8593;DHT22;4334;49.982;8.398;2023-05-10T16:52:42;21.00;99.90
8593;DHT22;4334;49.982;8.398;2023-05-10T16:55:09;21.00;99.90
8593;DHT22;4334;49.982;8.398;2023-05-10T16:57:36;21.20;99.90
8593;DHT22;4334;49.982;8.398;2023-05-10T17:00:03;21.40;99.90
8593;DHT22;4334;49.982;8.398;2023-05-10T17:02:31;21.50;99.90
8593;DHT22;4334;49.982;8.398;2023-05-10T17:05:01;21.60;99.90
8593;DHT22;4334;49.982;8.398;2023-05-10T17:07:37;21.50;99.90
8593;DHT22;4334;49.982;8.398;2023-05-10T17:10:21;20.80;99.90
8593;DHT22;4334;49.982;8.398;2023-05-10T17:12:48;19.60;99.90
8593;DHT22;4334;49.982;8.398;2023-05-10T17:15:15;19.30;99.90
8593;DHT22;4334;49.982;8.398;2023-05-10T17:17:43;19.10;99.90
8593;DHT22;4334;49.982;8.398;2023-05-10T17:20:11;19.20;99.90
8593;DHT22;4334;49.982;8.398;2023-05-10T17:25:06;19.50;99.90
8593;DHT22;4334;49.982;8.398;2023-05-10T17:27:33;19.40;99.90
8593;DHT22;4334;49.982;8.398;2023-05-10T17:30:00;19.30;99.90
8593;DHT22;4334;49.982;8.398;2023-05-10T17:32:27;19.20;99.90
8593;DHT22;4334;49.982;8.398;2023-05-10T17:37:23;19.00;99.90
8593;DHT22;4334;49.982;8.398;2023-05-10T17:39:50;15.30;99.90
8593;DHT22;4334;49.982;8.398;2023-05-10T17:42:17;18.90;99.90
8593;DHT22;4334;49.982;8.398;2023-05-10T17:44:48;18.70;99.90
8593;DHT22;4334;49.982;8.398;2023-05-10T17:47:17;18.70;99.90
8593;DHT22;4334;49.982;8.398;2023-05-10T17:49:45;18.60;99.90
8593;DHT22;4334;49.982;8.398;2023-05-10T17:52:12;18.50;99.90
8593;DHT22;4334;49.982;8.398;2023-05-10T17:54:40;18.40;99.90
8593;DHT22;4334;49.982;8.398;2023-05-10T17:57:06;18.30;99.90
8593;DHT22;4334;49.982;8.398;2023-05-10T17:59:33;18.20;99.90
8593;DHT22;4334;49.982;8.398;2023-05-10T18:02:01;18.20;99.90
8593;DHT22;4334;49.982;8.398;2023-05-10T18:04:28;18.20;99.90
8593;DHT22;4334;49.982;8.398;2023-05-10T18:06:55;19.60;99.90
8593;DHT22;4334;49.982;8.398;2023-05-10T18:09:32;18.10;99.90
8593;DHT22;4334;49.982;8.398;2023-05-10T18:12:02;17.90;99.90
8593;DHT22;4334;49.982;8.398;2023-05-10T18:14:29;17.80;99.90
8593;DHT22;4334;49.982;8.398;2023-05-10T18:16:56;17.80;99.90
8593;DHT22;4334;49.982;8.398;2023-05-10T18:19:23;17.60;99.90
8593;DHT22;4334;49.982;8.398;2023-05-10T18:21:50;17.50;99.90
8593;DHT22;4334;49.982;8.398;2023-05-10T18:24:17;17.40;99.90
8593;DHT22;4334;49.982;8.398;2023-05-10T18:26:46;17.30;99.90
8593;DHT22;4334;49.982;8.398;2023-05-10T18:29:14;17.20;99.90
8593;DHT22;4334;49.982;8.398;2023-05-10T18:31:40;17.20;99.90